Quinlan, Texas
Current Conditions -  °F | °C
As of 5:55 PM on Wednesday 22 Oct 2014 (Local Time) from KGVT Reporting Station
Broken Clouds Broken Clouds  
Wind Chill: 73°   Ceiling: 5000
Heat Index: 73°   Visibility: 10mi
Dew Point: 54°   Wind: 0mph
Humidity: 50%   Direction: NA
Pressure: 30.09"   Gusts: NA
Location:  32.91°N, 96.14°W
Report Text: KGVT 222255Z AUTO 00000KT 10SM BKN050 23/12 A3009 RMK AO2
Loading
Personal Weather Stations






























Interactive Weather Map
Tropical Storm Tracking
New forecast layout! Learn more

10-Day Weather Forecast

Advertisements
Track Severe Weather on mobile